Time;durP1;ratioP1;P1;durP2;ratioP2;P2;SDS_P1;SDS_P2;PMS_P1;PMS_P2;Temp;Humidity;BMP_temperature;BMP_pressure;BME280_temperature;BME280_humidity;BME280_pressure;Samples;Min_cycle;Max_cycle;Signal;HPM_P1;HPM_P2
2021/04/30 00:00:15;;;;;;;4.30;2.10;;;6.50;99.90;;;;;;5082293;28;20048;-58
2021/04/30 00:02:43;;;;;;;5.70;1.90;;;6.50;99.90;;;;;;5064557;28;20135;-59
2021/04/30 00:05:11;;;;;;;4.27;1.83;;;6.40;99.90;;;;;;5081410;28;20060;-58
2021/04/30 00:07:39;;;;;;;3.67;1.97;;;6.40;99.90;;;;;;5066851;28;20024;-59
2021/04/30 00:10:06;;;;;;;5.63;2.37;;;6.40;99.90;;;;;;5083008;28;20036;-59
2021/04/30 00:12:32;;;;;;;4.87;1.77;;;6.30;99.90;;;;;;5065735;28;20020;-59
2021/04/30 00:15:02;;;;;;;4.03;1.63;;;6.30;99.90;;;;;;5081179;28;20032;-59
2021/04/30 00:17:33;;;;;;;5.10;1.87;;;6.40;99.90;;;;;;5064737;28;20573;-59
2021/04/30 00:20:01;;;;;;;3.43;1.57;;;6.40;99.90;;;;;;5066845;28;20614;-59
2021/04/30 00:22:27;;;;;;;4.27;1.67;;;6.40;99.90;;;;;;5063896;28;20090;-59
2021/04/30 00:24:52;;;;;;;4.20;1.90;;;6.40;99.90;;;;;;5066320;28;20028;-59
2021/04/30 00:27:20;;;;;;;5.30;2.43;;;6.40;99.90;;;;;;5065467;28;20441;-59
2021/04/30 00:29:46;;;;;;;15.60;3.27;;;6.40;99.90;;;;;;5065698;28;20042;-59
2021/04/30 00:32:12;;;;;;;6.23;2.13;;;6.50;99.90;;;;;;5066048;28;20033;-59
2021/04/30 00:34:43;;;;;;;11.57;1.53;;;6.50;99.90;;;;;;5063609;28;20170;-59
2021/04/30 00:37:11;;;;;;;4.57;1.40;;;6.40;99.90;;;;;;5065769;28;20025;-59
2021/04/30 00:39:37;;;;;;;4.83;2.30;;;6.30;99.90;;;;;;5066295;28;20029;-59
2021/04/30 00:42:07;;;;;;;4.77;1.10;;;6.20;99.90;;;;;;5065072;28;20033;-59
2021/04/30 00:44:33;;;;;;;1.90;0.97;;;6.10;99.90;;;;;;5065508;28;20147;-59
2021/04/30 00:46:59;;;;;;;10.63;1.87;;;6.10;99.90;;;;;;5065879;28;20722;-59
2021/04/30 00:49:25;;;;;;;4.00;2.43;;;6.10;99.90;;;;;;5062716;28;20035;-59
2021/04/30 00:51:53;;;;;;;6.97;1.77;;;6.20;99.90;;;;;;5080444;28;20034;-59
2021/04/30 00:54:21;;;;;;;5.50;1.43;;;6.20;99.90;;;;;;5064637;28;20032;-58
2021/04/30 00:56:46;;;;;;;8.00;1.60;;;6.20;99.90;;;;;;5081092;28;20578;-59
2021/04/30 00:59:17;;;;;;;11.63;2.30;;;6.10;99.90;;;;;;5065252;28;20282;-60
2021/04/30 01:01:45;;;;;;;5.80;1.47;;;6.10;99.90;;;;;;5065742;28;20048;-60
2021/04/30 01:04:13;;;;;;;5.27;1.30;;;6.00;99.90;;;;;;5065684;28;20758;-60
2021/04/30 01:06:39;;;;;;;3.53;1.67;;;6.00;99.90;;;;;;5065226;28;20285;-59
2021/04/30 01:09:05;;;;;;;3.93;1.80;;;6.00;99.90;;;;;;5065545;28;20021;-59
2021/04/30 01:11:37;;;;;;;6.80;1.90;;;6.10;99.90;;;;;;5064111;28;20052;-59
2021/04/30 01:14:05;;;;;;;2.63;1.53;;;5.90;99.90;;;;;;5065118;28;20032;-59
2021/04/30 01:16:33;;;;;;;3.77;1.60;;;5.90;99.90;;;;;;5063605;28;20119;-59
2021/04/30 01:19:01;;;;;;;6.60;1.63;;;5.90;99.90;;;;;;5065293;28;21069;-59
2021/04/30 01:21:26;;;;;;;4.13;1.67;;;5.80;99.90;;;;;;5080509;28;20036;-59
2021/04/30 01:23:53;;;;;;;4.47;2.43;;;5.80;99.90;;;;;;5063144;28;20074;-59
2021/04/30 01:26:22;;;;;;;7.83;2.37;;;5.80;99.90;;;;;;5065255;28;20129;-59
2021/04/30 01:28:48;;;;;;;5.77;2.57;;;5.80;99.90;;;;;;5065569;28;20357;-59
2021/04/30 01:31:14;;;;;;;4.23;1.93;;;5.80;99.90;;;;;;5064924;28;20746;-58
2021/04/30 01:33:40;;;;;;;5.37;2.63;;;5.90;99.90;;;;;;5064420;28;20788;-59
2021/04/30 01:36:08;;;;;;;5.33;2.10;;;6.00;99.90;;;;;;5064935;28;20282;-59
2021/04/30 01:38:38;;;;;;;10.30;2.03;;;6.00;99.90;;;;;;5064266;28;20402;-59
2021/04/30 01:41:06;;;;;;;4.90;3.10;;;6.00;99.90;;;;;;5064483;28;20474;-59
2021/04/30 01:43:31;;;;;;;8.17;2.80;;;6.00;99.90;;;;;;5065280;28;20286;-58
2021/04/30 01:46:05;;;;;;;5.87;2.57;;;6.10;99.90;;;;;;5064611;28;20437;-61
2021/04/30 01:48:35;;;;;;;9.70;2.53;;;6.10;99.90;;;;;;5064497;28;20025;-60
2021/04/30 01:51:03;;;;;;;8.03;2.47;;;6.20;99.90;;;;;;5065107;28;20128;-61
2021/04/30 01:53:33;;;;;;;8.87;2.90;;;6.20;99.90;;;;;;5063033;28;20081;-58
2021/04/30 01:56:02;;;;;;;8.37;3.30;;;6.20;99.90;;;;;;5065428;28;20035;-59
2021/04/30 01:58:28;;;;;;;5.80;2.70;;;6.20;99.90;;;;;;5062108;28;20046;-59
2021/04/30 02:00:55;;;;;;;6.00;2.83;;;6.20;99.90;;;;;;5063018;28;20040;-60
2021/04/30 02:03:24;;;;;;;7.57;2.60;;;6.30;99.90;;;;;;5063763;28;20171;-59
2021/04/30 02:05:50;;;;;;;6.50;3.30;;;6.20;99.90;;;;;;5065004;28;20032;-59
2021/04/30 02:08:16;;;;;;;12.93;3.13;;;6.20;99.90;;;;;;5065044;28;20039;-59
2021/04/30 02:10:44;;;;;;;8.43;3.83;;;6.10;99.90;;;;;;5065349;28;20024;-60
2021/04/30 02:13:10;;;;;;;9.50;3.63;;;6.10;99.90;;;;;;5065045;28;20021;-59
2021/04/30 02:15:40;;;;;;;6.57;2.90;;;6.10;99.90;;;;;;5064555;28;20353;-59
2021/04/30 02:18:11;;;;;;;5.83;3.20;;;6.10;99.90;;;;;;5064484;28;20324;-59
2021/04/30 02:20:39;;;;;;;5.53;3.30;;;6.10;99.90;;;;;;5064043;28;20033;-59
2021/04/30 02:23:05;;;;;;;6.73;3.20;;;6.10;99.90;;;;;;5063338;28;20674;-59
2021/04/30 02:25:34;;;;;;;6.57;3.30;;;6.10;99.90;;;;;;5064723;28;20079;-59
2021/04/30 02:28:04;;;;;;;6.27;2.80;;;6.10;99.90;;;;;;5064337;28;20484;-59
2021/04/30 02:30:33;;;;;;;5.60;2.93;;;6.00;99.90;;;;;;5067505;28;20033;-59
2021/04/30 02:33:00;;;;;;;11.77;4.10;;;6.00;99.90;;;;;;5067810;28;20965;-59
2021/04/30 02:35:30;;;;;;;6.87;3.67;;;6.00;99.90;;;;;;5067157;28;20024;-59
2021/04/30 02:37:56;;;;;;;9.10;3.83;;;5.90;99.90;;;;;;5068592;28;20043;-59
2021/04/30 02:40:25;;;;;;;7.87;3.10;;;5.80;99.90;;;;;;5068108;28;20365;-59
2021/04/30 02:42:55;;;;;;;12.50;3.13;;;5.80;99.90;;;;;;5084215;28;20028;-59
2021/04/30 02:45:24;;;;;;;10.40;3.10;;;5.70;99.90;;;;;;5068006;28;20274;-59
2021/04/30 02:47:52;;;;;;;7.77;3.67;;;5.70;99.90;;;;;;5067831;28;20414;-59
2021/04/30 02:50:23;;;;;;;9.27;2.90;;;5.70;99.90;;;;;;5082981;28;20407;-59
2021/04/30 02:52:50;;;;;;;11.10;3.50;;;5.80;99.90;;;;;;5066448;28;20437;-59
2021/04/30 02:55:20;;;;;;;9.70;3.47;;;5.80;99.90;;;;;;5068021;28;20020;-60
2021/04/30 02:57:48;;;;;;;10.47;4.20;;;5.90;99.90;;;;;;5083778;28;20402;-59
2021/04/30 03:00:14;;;;;;;6.23;3.43;;;6.00;99.90;;;;;;5083067;28;21470;-60
2021/04/30 03:02:41;;;;;;;6.00;3.00;;;6.00;99.90;;;;;;5068272;28;20089;-59
2021/04/30 03:05:07;;;;;;;7.30;3.37;;;6.00;99.90;;;;;;5082499;28;20029;-60
2021/04/30 03:07:35;;;;;;;7.47;3.80;;;6.10;99.90;;;;;;5068000;28;20082;-59
2021/04/30 03:10:01;;;;;;;10.37;4.47;;;6.00;99.90;;;;;;5067561;28;20031;-59
2021/04/30 03:12:28;;;;;;;6.17;3.40;;;6.10;99.90;;;;;;5066522;28;20279;-59
2021/04/30 03:14:54;;;;;;;7.17;3.00;;;6.20;99.90;;;;;;5067709;28;20037;-61
2021/04/30 03:17:19;;;;;;;7.27;2.67;;;6.20;99.90;;;;;;5067669;28;20040;-59
2021/04/30 03:19:45;;;;;;;8.47;3.53;;;6.20;99.90;;;;;;5065348;28;20505;-59
2021/04/30 03:22:11;;;;;;;5.83;3.30;;;6.20;99.90;;;;;;5082327;28;20039;-59
2021/04/30 03:24:36;;;;;;;6.93;3.50;;;6.30;99.90;;;;;;5067025;28;20044;-59
2021/04/30 03:27:02;;;;;;;5.90;3.27;;;6.30;99.90;;;;;;5082437;28;20341;-59
2021/04/30 03:29:28;;;;;;;12.93;4.57;;;6.20;99.90;;;;;;5064714;28;20052;-59
2021/04/30 03:31:56;;;;;;;5.73;3.23;;;6.20;99.90;;;;;;5067771;28;20024;-59
2021/04/30 03:34:24;;;;;;;9.93;3.27;;;6.20;99.90;;;;;;5083101;28;20196;-59
2021/04/30 03:36:49;;;;;;;9.53;3.43;;;6.20;99.90;;;;;;5066923;28;20032;-59
2021/04/30 03:39:15;;;;;;;15.17;3.93;;;6.30;99.90;;;;;;5069678;28;20459;-59
2021/04/30 03:41:41;;;;;;;6.53;3.57;;;6.30;99.90;;;;;;5066198;28;20115;-60
2021/04/30 03:44:07;;;;;;;13.50;4.30;;;6.30;99.90;;;;;;5067014;28;20241;-59
2021/04/30 03:46:33;;;;;;;9.63;4.43;;;6.30;99.90;;;;;;5067086;28;20028;-60
2021/04/30 03:48:58;;;;;;;10.30;3.60;;;6.30;99.90;;;;;;5067478;28;20456;-59
2021/04/30 03:51:24;;;;;;;8.20;3.70;;;6.30;99.90;;;;;;5066575;28;20020;-59
2021/04/30 03:53:52;;;;;;;7.33;3.40;;;6.30;99.90;;;;;;5065263;28;20032;-59
2021/04/30 03:56:22;;;;;;;11.83;3.77;;;6.30;99.90;;;;;;5064687;28;20054;-59
2021/04/30 03:58:48;;;;;;;7.80;4.10;;;6.40;99.90;;;;;;5067677;28;20028;-58
2021/04/30 04:01:13;;;;;;;12.40;3.37;;;6.40;99.90;;;;;;5065926;28;20064;-59
2021/04/30 04:03:39;;;;;;;11.20;4.63;;;6.40;99.90;;;;;;5066919;28;20492;-59
2021/04/30 04:06:07;;;;;;;9.33;3.97;;;6.40;99.90;;;;;;5065150;28;20024;-59
2021/04/30 04:08:35;;;;;;;8.97;3.70;;;6.40;99.90;;;;;;5066114;28;20120;-60
2021/04/30 04:11:00;;;;;;;8.97;4.07;;;6.40;99.90;;;;;;5066195;28;20420;-59
2021/04/30 04:13:26;;;;;;;6.80;3.83;;;6.50;99.90;;;;;;5064974;28;20024;-59
2021/04/30 04:16:02;;;;;;;10.80;3.67;;;6.50;99.90;;;;;;5067035;28;20020;-59
2021/04/30 04:18:28;;;;;;;18.10;4.47;;;6.50;99.90;;;;;;5065321;28;20474;-60
2021/04/30 04:20:54;;;;;;;9.90;4.53;;;6.60;99.90;;;;;;5066190;28;20032;-59
2021/04/30 04:23:20;;;;;;;10.93;4.10;;;6.50;99.90;;;;;;5065552;28;21841;-60
2021/04/30 04:25:48;;;;;;;13.23;4.63;;;6.60;99.90;;;;;;5064378;28;20096;-59
2021/04/30 04:28:14;;;;;;;8.10;4.07;;;6.50;99.90;;;;;;5082880;28;20025;-59
2021/04/30 04:30:40;;;;;;;7.87;3.60;;;6.50;99.90;;;;;;5066071;28;20518;-59
2021/04/30 04:33:09;;;;;;;9.57;3.23;;;6.50;99.90;;;;;;5065902;28;20180;-60
2021/04/30 04:35:34;;;;;;;8.50;4.10;;;6.50;99.90;;;;;;5065945;28;20479;-60
2021/04/30 04:38:04;;;;;;;11.27;5.50;;;6.50;99.90;;;;;;5081639;28;20132;-60
2021/04/30 04:40:30;;;;;;;11.77;4.13;;;6.40;99.90;;;;;;5065627;28;20025;-60
2021/04/30 04:42:58;;;;;;;8.67;4.23;;;6.40;99.90;;;;;;5065967;28;20035;-59
2021/04/30 04:45:24;;;;;;;10.40;3.80;;;6.40;99.90;;;;;;5065433;28;20298;-60
2021/04/30 04:47:49;;;;;;;16.03;4.87;;;6.40;99.90;;;;;;5064751;28;20453;-59
2021/04/30 04:50:15;;;;;;;10.13;3.83;;;6.50;99.90;;;;;;5066129;28;20115;-59
2021/04/30 04:52:41;;;;;;;10.10;4.87;;;6.50;99.90;;;;;;5062997;28;20028;-59
2021/04/30 04:55:11;;;;;;;8.77;3.97;;;6.50;99.90;;;;;;5065441;28;20135;-60
2021/04/30 04:57:38;;;;;;;13.40;4.80;;;6.50;99.90;;;;;;5081390;28;20476;-59
2021/04/30 05:00:10;;;;;;;9.00;4.90;;;6.40;99.90;;;;;;5065040;28;20102;-59
2021/04/30 05:02:38;;;;;;;9.97;4.43;;;6.50;99.90;;;;;;5064569;28;20028;-59
2021/04/30 05:05:07;;;;;;;13.17;5.77;;;6.50;99.90;;;;;;5080721;28;21944;-59
2021/04/30 05:07:35;;;;;;;9.53;4.30;;;6.50;99.90;;;;;;5064736;28;20042;-59
2021/04/30 05:10:01;;;;;;;8.27;4.63;;;6.60;99.90;;;;;;5064803;28;20625;-59
2021/04/30 05:12:29;;;;;;;8.97;4.27;;;6.70;99.90;;;;;;5064617;28;20032;-59
2021/04/30 05:14:55;;;;;;;14.73;5.50;;;6.70;99.90;;;;;;5065513;28;20020;-60
2021/04/30 05:17:23;;;;;;;12.67;4.77;;;6.80;99.90;;;;;;5065095;28;20917;-60
2021/04/30 05:19:48;;;;;;;9.77;4.33;;;6.80;99.90;;;;;;5063935;28;20635;-60
2021/04/30 05:22:16;;;;;;;7.97;4.03;;;6.80;99.90;;;;;;5065155;28;20025;-60
2021/04/30 05:24:44;;;;;;;12.20;4.37;;;6.90;99.90;;;;;;5064564;28;20032;-60
2021/04/30 05:27:11;;;;;;;9.07;4.57;;;7.00;99.90;;;;;;5063606;28;20032;-60
2021/04/30 05:29:44;;;;;;;8.47;4.57;;;7.00;99.90;;;;;;5065171;28;20377;-60
2021/04/30 05:32:10;;;;;;;;;;;7.00;99.90;;;;;;5065707;28;20032;-60
2021/04/30 05:34:36;;;;;;;8.73;4.23;;;7.10;99.90;;;;;;5065035;28;19976;-60
2021/04/30 05:37:02;;;;;;;12.90;4.30;;;7.10;99.90;;;;;;5065177;28;20085;-60
2021/04/30 05:39:30;;;;;;;11.43;3.93;;;7.10;99.90;;;;;;5064342;28;20032;-61
2021/04/30 05:41:56;;;;;;;9.43;4.60;;;7.10;99.90;;;;;;5064611;28;20044;-60
2021/04/30 05:44:22;;;;;;;9.17;4.03;;;7.10;99.90;;;;;;5080026;28;20059;-60
2021/04/30 05:46:48;;;;;;;10.50;4.03;;;7.10;99.90;;;;;;5062266;28;20163;-60
2021/04/30 05:49:13;;;;;;;15.40;3.63;;;7.20;99.90;;;;;;5064081;28;20593;-60
2021/04/30 05:51:41;;;;;;;8.40;4.10;;;7.20;99.90;;;;;;5063922;28;20475;-60
2021/04/30 05:54:10;;;;;;;8.17;3.70;;;7.20;99.90;;;;;;5063710;28;20040;-60
2021/04/30 05:56:35;;;;;;;13.00;4.40;;;7.30;99.90;;;;;;5080602;28;20081;-60
2021/04/30 05:59:01;;;;;;;7.63;4.37;;;7.30;99.90;;;;;;5065020;28;20047;-60
2021/04/30 06:01:27;;;;;;;10.10;4.83;;;7.30;99.90;;;;;;5062452;28;20053;-60
2021/04/30 06:03:55;;;;;;;8.67;3.80;;;7.40;99.90;;;;;;5064569;28;20028;-61
2021/04/30 06:06:21;;;;;;;13.10;3.83;;;7.40;99.90;;;;;;5069066;28;20032;-60
2021/04/30 06:08:51;;;;;;;13.13;4.23;;;7.50;99.90;;;;;;5068586;28;20032;-61
2021/04/30 06:11:16;;;;;;;7.27;3.70;;;7.50;99.90;;;;;;5083773;28;20032;-60
2021/04/30 06:13:42;;;;;;;6.23;3.97;;;7.50;99.90;;;;;;5068015;28;21085;-61
2021/04/30 06:16:08;;;;;;;14.67;4.00;;;7.50;99.90;;;;;;5068054;28;20082;-61
2021/04/30 06:18:33;;;;;;;15.63;5.07;;;7.60;99.90;;;;;;5068705;28;20470;-60
2021/04/30 06:21:02;;;;;;;14.93;4.00;;;7.60;99.90;;;;;;5066269;28;20582;-60
2021/04/30 06:23:27;;;;;;;14.30;4.83;;;7.60;99.90;;;;;;5070068;28;20164;-60
2021/04/30 06:25:53;;;;;;;10.03;4.43;;;7.50;99.90;;;;;;5068049;28;20036;-60
2021/04/30 06:28:19;;;;;;;6.73;3.57;;;7.40;99.90;;;;;;5067521;28;20111;-61
2021/04/30 06:30:46;;;;;;;9.17;4.00;;;7.60;99.90;;;;;;5067661;28;20020;-60
2021/04/30 06:33:11;;;;;;;11.17;4.00;;;7.60;99.90;;;;;;5067612;28;20024;-60
2021/04/30 06:35:37;;;;;;;10.10;3.97;;;7.70;99.90;;;;;;5067022;28;20063;-60
2021/04/30 06:38:03;;;;;;;6.87;3.80;;;7.70;99.90;;;;;;5067197;28;20511;-60
2021/04/30 06:40:29;;;;;;;7.27;4.00;;;7.60;99.90;;;;;;5067281;28;20048;-60
2021/04/30 06:43:01;;;;;;;13.60;4.50;;;7.70;99.90;;;;;;5067595;28;20406;-59
2021/04/30 06:45:31;;;;;;;10.90;3.53;;;7.70;99.90;;;;;;5068091;28;20040;-60
2021/04/30 06:47:56;;;;;;;11.27;4.33;;;7.80;99.90;;;;;;5066873;28;20047;-60
2021/04/30 06:50:22;;;;;;;14.57;4.47;;;7.90;99.90;;;;;;5066560;28;21842;-60
2021/04/30 06:52:51;;;;;;;14.43;4.40;;;7.90;99.90;;;;;;5065583;28;20419;-60
2021/04/30 06:55:16;;;;;;;10.57;3.90;;;8.10;99.90;;;;;;5066973;28;20043;-60
2021/04/30 06:57:42;;;;;;;12.30;4.90;;;8.30;99.90;;;;;;5067180;28;20055;-60
2021/04/30 07:00:11;;;;;;;11.03;3.80;;;8.30;99.90;;;;;;5084044;28;20051;-59
2021/04/30 07:02:37;;;;;;;8.80;3.87;;;8.40;99.90;;;;;;5065514;28;20089;-61
2021/04/30 07:05:03;;;;;;;8.33;4.33;;;8.60;99.90;;;;;;5070495;28;20465;-60
2021/04/30 07:07:30;;;;;;;8.97;5.10;;;8.50;99.90;;;;;;5067040;28;20039;-59
2021/04/30 07:09:56;;;;;;;10.57;5.07;;;8.50;99.90;;;;;;5066182;28;20035;-60
2021/04/30 07:12:24;;;;;;;8.60;3.83;;;8.40;99.90;;;;;;5052664;28;20028;-60
2021/04/30 07:14:49;;;;;;;7.23;3.90;;;8.50;99.90;;;;;;5066181;28;20028;-60
2021/04/30 07:17:15;;;;;;;10.23;4.13;;;8.60;99.90;;;;;;5066828;28;20526;-60
2021/04/30 07:19:43;;;;;;;9.50;3.90;;;8.70;99.90;;;;;;5067013;28;20048;-60
2021/04/30 07:22:14;;;;;;;8.90;3.93;;;8.50;99.90;;;;;;5069484;28;20044;-60
2021/04/30 07:24:43;;;;;;;13.80;3.60;;;8.60;99.90;;;;;;5067101;28;20029;-60
2021/04/30 07:27:11;;;;;;;8.67;4.20;;;8.40;99.90;;;;;;5067692;28;20020;-60
2021/04/30 07:29:37;;;;;;;8.83;3.97;;;8.30;99.90;;;;;;5066976;28;20029;-60
2021/04/30 07:32:05;;;;;;;6.87;3.73;;;8.20;99.90;;;;;;5066720;28;20029;-60
2021/04/30 07:34:33;;;;;;;12.07;5.17;;;8.20;99.90;;;;;;5066472;28;20040;-59
2021/04/30 07:36:59;;;;;;;19.27;4.70;;;8.30;99.90;;;;;;5067130;28;20043;-60
2021/04/30 07:39:26;;;;;;;15.97;4.23;;;8.40;99.90;;;;;;5065237;28;20040;-60
2021/04/30 07:41:54;;;;;;;11.60;4.13;;;8.50;99.90;;;;;;5067646;28;20385;-60
2021/04/30 07:44:20;;;;;;;11.43;4.10;;;8.50;99.90;;;;;;5066875;28;20059;-59
2021/04/30 07:46:46;;;;;;;14.47;4.83;;;8.60;99.90;;;;;;5069426;28;20689;-59
2021/04/30 07:49:13;;;;;;;23.63;5.90;;;8.60;99.90;;;;;;5067046;28;20024;-60
2021/04/30 07:51:39;;;;;;;14.07;5.10;;;8.80;99.90;;;;;;5067203;28;20477;-59
2021/04/30 07:54:06;;;;;;;21.67;5.77;;;8.80;99.90;;;;;;5066993;28;20027;-59
2021/04/30 07:56:32;;;;;;;7.03;3.73;;;8.80;99.90;;;;;;5066792;28;20029;-59
2021/04/30 07:59:00;;;;;;;24.03;5.90;;;8.80;99.90;;;;;;5067060;28;20043;-60
2021/04/30 08:01:25;;;;;;;6.93;4.57;;;8.80;99.90;;;;;;5066733;28;20056;-59
2021/04/30 08:03:52;;;;;;;8.10;4.53;;;8.70;99.90;;;;;;5066718;28;20105;-59
2021/04/30 08:06:20;;;;;;;14.07;4.13;;;8.60;99.90;;;;;;5066204;28;20060;-60
2021/04/30 08:08:45;;;;;;;9.27;4.33;;;8.60;99.90;;;;;;5081800;28;20444;-59
2021/04/30 08:11:13;;;;;;;9.83;4.80;;;8.60;99.90;;;;;;5066599;28;20028;-60
2021/04/30 08:13:41;;;;;;;10.70;4.97;;;8.60;99.90;;;;;;5082083;28;20032;-60
2021/04/30 08:16:09;;;;;;;7.70;4.20;;;8.60;99.90;;;;;;5067625;28;20040;-60
2021/04/30 08:18:35;;;;;;;7.40;4.30;;;8.60;99.90;;;;;;5066595;28;20127;-60
2021/04/30 08:21:00;;;;;;;9.63;4.30;;;8.70;99.90;;;;;;5065766;28;20024;-59
2021/04/30 08:23:26;;;;;;;15.00;4.23;;;8.70;99.90;;;;;;5065175;28;20039;-60
2021/04/30 08:25:54;;;;;;;11.43;4.27;;;8.80;99.90;;;;;;5051532;28;20024;-62
2021/04/30 08:28:22;;;;;;;20.43;4.77;;;8.80;99.90;;;;;;5065782;28;20448;-59
2021/04/30 08:30:52;;;;;;;11.03;4.03;;;8.80;99.90;;;;;;5066622;28;20039;-60
2021/04/30 08:33:17;;;;;;;12.70;4.97;;;8.80;99.90;;;;;;5066731;28;20036;-59
2021/04/30 08:35:45;;;;;;;16.40;4.67;;;8.80;99.90;;;;;;5065247;28;20044;-60
2021/04/30 08:38:13;;;;;;;13.83;5.20;;;8.80;99.90;;;;;;5064879;28;20199;-61
2021/04/30 08:40:42;;;;;;;6.67;4.00;;;8.80;99.90;;;;;;5064965;28;20064;-61
2021/04/30 08:43:07;;;;;;;10.50;4.87;;;8.90;99.90;;;;;;5066113;28;20036;-61
2021/04/30 08:45:40;;;;;;;13.60;4.47;;;9.00;99.90;;;;;;5066214;28;20558;-60
2021/04/30 08:48:11;;;;;;;10.10;4.53;;;8.90;99.90;;;;;;5051375;28;20089;-60
2021/04/30 08:50:39;;;;;;;17.67;4.70;;;8.80;99.90;;;;;;5063288;28;20033;-59
2021/04/30 08:53:05;;;;;;;14.60;4.67;;;8.90;99.90;;;;;;5065492;28;20024;-60
2021/04/30 08:55:31;;;;;;;12.83;5.67;;;8.80;99.90;;;;;;5065255;28;20036;-61
2021/04/30 08:57:59;;;;;;;14.73;5.07;;;8.80;99.90;;;;;;5064937;28;20032;-60
2021/04/30 09:00:29;;;;;;;8.07;3.90;;;8.80;99.90;;;;;;5066070;28;20059;-59
2021/04/30 09:02:59;;;;;;;9.27;4.13;;;8.70;99.90;;;;;;5080406;28;20062;-59
2021/04/30 09:05:29;;;;;;;12.30;4.70;;;8.70;99.90;;;;;;5064573;28;20032;-60
2021/04/30 09:08:00;;;;;;;14.07;5.40;;;8.80;99.90;;;;;;5064547;28;20131;-60
2021/04/30 09:10:36;;;;;;;9.40;4.87;;;9.00;99.90;;;;;;5064701;28;20036;-60
2021/04/30 09:13:09;;;;;;;11.47;4.33;;;9.00;99.90;;;;;;5065141;28;20033;-60
2021/04/30 09:15:39;;;;;;;15.67;4.70;;;9.20;99.90;;;;;;5064187;28;20541;-60
2021/04/30 09:18:15;;;;;;;11.33;4.43;;;9.30;99.90;;;;;;5081827;28;20098;-60
2021/04/30 09:20:44;;;;;;;12.33;4.23;;;9.30;99.90;;;;;;5064907;28;20047;-60
2021/04/30 09:23:47;;;;;;;10.57;4.60;;;9.30;99.90;;;;;;5050107;28;20038;-59
2021/04/30 09:26:25;;;;;;;14.20;4.53;;;9.50;99.90;;;;;;5065215;28;20024;-59
2021/04/30 09:29:10;;;;;;;15.27;5.63;;;9.70;99.90;;;;;;5065967;28;20388;-59
2021/04/30 09:31:44;;;;;;;10.70;4.63;;;10.00;99.90;;;;;;5063557;28;20047;-59
2021/04/30 09:34:27;;;;;;;11.93;4.57;;;10.20;99.90;;;;;;5065409;28;20100;-59
2021/04/30 09:37:20;;;;;;;9.60;5.50;;;10.50;99.00;;;;;;5065162;28;20028;-60
2021/04/30 09:40:00;;;;;;;19.70;6.18;;;10.80;97.90;;;;;;5064309;28;20556;-59
2021/04/30 09:42:38;;;;;;;11.33;5.10;;;10.60;97.70;;;;;;5064791;28;20647;-60
2021/04/30 09:45:06;;;;;;;8.67;4.93;;;10.50;98.70;;;;;;5065366;28;20034;-59
2021/04/30 09:47:39;;;;;;;9.27;4.73;;;10.60;98.40;;;;;;5062192;28;20067;-60
2021/04/30 09:50:09;;;;;;;17.23;4.93;;;10.80;98.10;;;;;;5065720;28;20460;-60
2021/04/30 09:52:35;;;;;;;12.70;5.20;;;10.80;97.20;;;;;;5063076;28;21842;-60
2021/04/30 09:55:06;;;;;;;11.90;4.90;;;10.40;98.10;;;;;;5064583;28;20033;-60
2021/04/30 09:57:33;;;;;;;13.57;4.90;;;10.50;98.20;;;;;;5065505;28;20043;-60
2021/04/30 10:00:07;;;;;;;11.67;4.67;;;10.70;98.00;;;;;;5063050;28;20051;-60
2021/04/30 10:02:34;;;;;;;14.07;5.53;;;10.90;96.70;;;;;;5064127;28;20109;-60
2021/04/30 10:05:21;;;;;;;13.20;5.97;;;11.20;97.40;;;;;;5064347;28;20064;-60
2021/04/30 10:07:47;;;;;;;22.40;4.97;;;11.40;95.90;;;;;;5064333;28;20456;-60
2021/04/30 10:10:15;;;;;;;10.03;4.10;;;11.70;95.80;;;;;;5065326;28;20044;-60
2021/04/30 10:12:55;;;;;;;13.70;5.40;;;11.80;95.00;;;;;;5064697;28;20028;-60
2021/04/30 10:15:23;;;;;;;13.10;5.53;;;11.60;94.50;;;;;;5065561;28;20846;-59
2021/04/30 10:17:56;;;;;;;12.50;5.23;;;11.50;94.90;;;;;;5062254;28;20114;-60
2021/04/30 10:20:24;;;;;;;14.57;5.93;;;11.40;94.90;;;;;;5065329;28;20044;-60
2021/04/30 10:22:51;;;;;;;15.77;5.20;;;11.40;95.10;;;;;;5064646;28;20048;-59
2021/04/30 10:25:19;;;;;;;14.13;5.60;;;11.50;95.00;;;;;;5065160;28;20129;-60
2021/04/30 10:27:47;;;;;;;10.50;5.00;;;11.50;94.80;;;;;;5080158;28;20036;-60
2021/04/30 10:30:41;;;;;;;12.80;5.23;;;11.60;95.00;;;;;;5064035;28;20154;-60
2021/04/30 10:33:24;;;;;;;14.30;5.30;;;11.60;94.80;;;;;;5064898;28;20037;-60
2021/04/30 10:36:03;;;;;;;9.83;5.00;;;11.60;94.90;;;;;;5064787;28;20032;-60
2021/04/30 10:38:35;;;;;;;8.37;4.63;;;11.60;95.80;;;;;;5064256;28;20038;-59
2021/04/30 10:41:02;;;;;;;13.65;5.43;;;11.50;95.60;;;;;;5064385;28;20028;-59
2021/04/30 10:43:29;;;;;;;9.77;4.97;;;11.50;96.00;;;;;;5063730;28;21902;-59
2021/04/30 10:45:58;;;;;;;18.60;5.47;;;11.50;96.10;;;;;;5065234;28;20078;-60
2021/04/30 10:48:23;;;;;;;12.37;5.50;;;11.60;96.30;;;;;;5064111;28;20082;-60
2021/04/30 10:50:52;;;;;;;12.37;5.43;;;11.60;96.00;;;;;;5064229;28;20606;-60
2021/04/30 10:53:26;;;;;;;15.93;6.33;;;11.60;96.00;;;;;;5066717;28;20024;-60
2021/04/30 10:55:57;;;;;;;15.87;5.03;;;11.60;95.80;;;;;;5068157;28;20025;-61
2021/04/30 10:58:39;;;;;;;12.40;5.10;;;11.60;96.10;;;;;;5066938;28;20722;-60
2021/04/30 11:01:26;;;;;;;15.23;5.37;;;11.70;96.00;;;;;;5067901;28;20725;-60
2021/04/30 11:04:13;;;;;;;14.77;6.07;;;11.90;95.10;;;;;;5068402;28;20036;-60
2021/04/30 11:06:54;;;;;;;14.17;5.23;;;11.90;95.00;;;;;;5068442;28;20028;-60
2021/04/30 11:09:28;;;;;;;10.97;5.20;;;11.90;94.80;;;;;;5067990;28;20071;-60
2021/04/30 11:12:00;;;;;;;14.00;5.50;;;12.00;95.20;;;;;;5083263;28;20028;-60
2021/04/30 11:14:35;;;;;;;10.35;4.60;;;12.30;94.30;;;;;;5067848;28;20101;-60
2021/04/30 11:17:01;;;;;;;13.83;5.13;;;12.60;93.80;;;;;;5066996;28;20036;-59
2021/04/30 11:19:30;;;;;;;15.53;6.13;;;12.90;92.50;;;;;;5067946;28;20036;-60
2021/04/30 11:22:10;;;;;;;12.53;5.00;;;13.00;92.40;;;;;;5068167;28;20063;-59
2021/04/30 11:24:42;;;;;;;10.57;5.23;;;13.20;92.00;;;;;;5067291;28;20036;-60
2021/04/30 11:27:07;;;;;;;14.20;4.85;;;13.40;90.30;;;;;;5053241;28;20093;-60
2021/04/30 11:29:33;;;;;;;11.93;5.43;;;13.60;87.80;;;;;;5083676;28;20032;-59
2021/04/30 11:32:20;;;;;;;12.60;5.30;;;13.80;87.40;;;;;;5066137;28;20034;-60
2021/04/30 11:35:01;;;;;;;15.87;4.60;;;14.00;84.40;;;;;;5066755;28;20039;-61
2021/04/30 11:37:30;;;;;;;11.87;5.07;;;14.20;84.00;;;;;;5065406;28;20036;-60
2021/04/30 11:39:58;;;;;;;12.77;5.93;;;14.40;82.80;;;;;;5066875;28;20457;-59
2021/04/30 11:42:28;;;;;;;11.13;5.40;;;14.20;82.90;;;;;;5066868;28;20024;-60
2021/04/30 11:44:56;;;;;;;13.07;5.33;;;14.30;82.40;;;;;;5067132;28;20054;-60
2021/04/30 11:47:33;;;;;;;12.97;5.70;;;14.30;82.60;;;;;;5069306;28;20408;-60
2021/04/30 11:49:59;;;;;;;11.20;5.10;;;14.30;81.70;;;;;;5067206;28;20032;-60
2021/04/30 11:52:38;;;;;;;10.87;5.17;;;14.30;82.20;;;;;;5065899;28;20036;-60
2021/04/30 11:55:11;;;;;;;15.57;6.37;;;14.40;79.40;;;;;;5065428;28;20123;-61
2021/04/30 11:57:40;;;;;;;14.17;5.17;;;14.10;80.10;;;;;;5082108;28;20036;-60
2021/04/30 12:00:19;;;;;;;13.00;6.20;;;13.80;83.60;;;;;;5066650;28;20121;-60
2021/04/30 12:02:45;;;;;;;8.57;4.63;;;13.70;82.90;;;;;;5062898;28;20436;-60
2021/04/30 12:05:11;;;;;;;10.47;4.93;;;13.70;82.80;;;;;;5066421;28;20036;-60
2021/04/30 12:07:45;;;;;;;10.53;5.03;;;13.70;83.40;;;;;;5066352;28;20080;-60
2021/04/30 12:10:26;;;;;;;13.13;6.47;;;13.50;84.00;;;;;;5067436;28;20505;-59
2021/04/30 12:12:56;;;;;;;10.23;5.63;;;13.50;84.30;;;;;;5066062;28;20032;-60
2021/04/30 12:15:28;;;;;;;21.73;6.73;;;13.60;84.20;;;;;;5067841;28;20047;-60
2021/04/30 12:17:53;;;;;;;14.07;5.38;;;13.80;84.50;;;;;;5066297;28;20024;-61
2021/04/30 12:20:23;;;;;;;12.37;5.57;;;14.10;83.00;;;;;;5067257;28;20084;-59
2021/04/30 12:23:01;;;;;;;17.97;5.50;;;14.40;79.50;;;;;;5066341;28;20029;-61
2021/04/30 12:25:44;;;;;;;14.27;5.10;;;14.60;79.20;;;;;;5065868;28;20047;-61
2021/04/30 12:28:27;;;;;;;15.63;5.83;;;14.60;78.70;;;;;;5066051;28;20058;-61
2021/04/30 12:31:04;;;;;;;14.30;5.65;;;15.10;76.40;;;;;;5066665;28;20111;-60
2021/04/30 12:33:33;;;;;;;11.13;5.63;;;15.70;74.30;;;;;;5066454;28;20123;-61
2021/04/30 12:36:02;;;;;;;12.90;5.57;;;16.00;69.10;;;;;;5065834;28;20033;-61
2021/04/30 12:38:31;;;;;;;9.33;4.97;;;16.40;66.00;;;;;;5065599;28;20032;-60
2021/04/30 12:41:10;;;;;;;12.82;5.68;;;16.80;65.50;;;;;;5065285;28;20044;-61
2021/04/30 12:43:39;;;;;;;11.55;5.43;;;17.90;61.50;;;;;;5065392;28;20023;-61
2021/04/30 12:46:25;;;;;;;11.32;4.72;;;19.30;57.30;;;;;;5066281;28;20668;-59
2021/04/30 12:48:52;;;;;;;8.52;4.30;;;20.40;53.40;;;;;;5065787;28;20048;-60
2021/04/30 12:51:26;;;;;;;11.65;4.65;;;20.70;53.20;;;;;;5065139;28;20777;-60
2021/04/30 12:53:52;;;;;;;10.20;4.35;;;21.20;50.60;;;;;;5066043;28;20031;-60
2021/04/30 12:56:31;;;;;;;10.43;4.78;;;20.40;49.70;;;;;;5065964;28;20119;-61